createdAt,value
2022-10-20T00:02:47.302Z,100842.47
2022-10-20T00:08:31.481Z,100857.56
2022-10-20T00:11:12.727Z,100861.31
2022-10-20T00:19:35.069Z,100861.31
2022-10-20T00:26:41.834Z,100866.13
2022-10-20T00:35:03.953Z,100903.19
2022-10-20T00:42:33.381Z,100897.09
2022-10-20T00:49:42.113Z,100892.34
2022-10-20T00:53:11.457Z,100890.66
2022-10-20T00:55:57.598Z,100890.41
2022-10-20T00:58:55.850Z,100899.44
2022-10-20T01:04:39.851Z,100879.91
2022-10-20T01:07:51.431Z,100881.69
2022-10-20T01:10:31.615Z,100872.53
2022-10-20T01:13:01.613Z,100841.84
2022-10-20T01:16:17.646Z,100861.44
2022-10-20T01:19:01.934Z,100857.63
2022-10-20T01:26:01.565Z,100859.88
2022-10-20T01:32:00.255Z,100847.50
2022-10-20T01:35:39.255Z,100872.00
2022-10-20T01:38:53.261Z,100871.09
2022-10-20T01:41:50.745Z,100863.78
2022-10-20T01:44:20.507Z,100851.53
2022-10-20T01:47:40.726Z,100868.78
2022-10-20T01:50:10.273Z,100861.88
2022-10-20T01:52:43.179Z,100858.94
2022-10-20T01:55:13.924Z,100850.63
2022-10-20T01:58:14.726Z,100857.91
2022-10-20T02:04:15.952Z,100861.38
2022-10-20T02:11:16.359Z,100849.88
2022-10-20T02:13:49.873Z,100853.31
2022-10-20T02:19:07.267Z,100854.69
2022-10-20T02:22:15.119Z,100867.16
2022-10-20T02:25:07.880Z,100876.78
2022-10-20T02:31:48.613Z,100869.88
2022-10-20T02:34:17.939Z,100861.94
2022-10-20T02:36:50.300Z,100870.69
2022-10-20T02:39:52.111Z,100860.44
2022-10-20T02:42:23.383Z,100847.97
2022-10-20T02:49:11.752Z,100827.00
2022-10-20T02:51:43.265Z,100841.06
2022-10-20T02:54:15.113Z,100842.34
2022-10-20T02:57:13.640Z,100846.16
2022-10-20T03:04:36.087Z,100845.69
2022-10-20T03:11:26.628Z,100819.25
2022-10-20T03:14:18.261Z,100815.53
2022-10-20T03:17:26.873Z,100801.03
2022-10-20T03:24:38.339Z,100771.28
2022-10-20T03:31:44.156Z,100797.28
2022-10-20T03:34:36.844Z,100797.94
2022-10-20T03:37:25.571Z,100781.09
2022-10-20T03:40:10.073Z,100798.53
2022-10-20T03:43:46.653Z,100808.34
2022-10-20T03:46:18.510Z,100807.91
2022-10-20T03:48:46.625Z,100808.34
2022-10-20T03:51:15.193Z,100802.72
2022-10-20T04:03:23.709Z,100806.09
2022-10-20T04:06:29.961Z,100815.88
2022-10-20T04:08:58.193Z,100802.59
2022-10-20T04:11:27.257Z,100797.72
2022-10-20T04:14:14.883Z,100787.41
2022-10-20T04:19:58.447Z,100782.25
2022-10-20T04:22:29.605Z,100806.28
2022-10-20T04:24:59.151Z,100795.19
2022-10-20T04:27:53.230Z,100798.06
2022-10-20T04:31:06.831Z,100808.13
2022-10-20T04:33:51.153Z,100810.06
2022-10-20T04:36:47.771Z,100811.56
2022-10-20T04:40:03.056Z,100807.41
2022-10-20T04:43:02.066Z,100810.06
2022-10-20T04:45:51.113Z,100809.47
2022-10-20T04:48:28.003Z,100809.47
2022-10-20T04:51:31.348Z,100815.44
2022-10-20T04:53:59.955Z,100806.56
2022-10-20T05:02:57.942Z,100788.38
2022-10-20T05:05:28.098Z,100763.09
2022-10-20T05:07:56.186Z,100774.50
2022-10-20T05:10:25.186Z,100762.34
2022-10-20T05:13:13.230Z,100747.84
2022-10-20T05:16:19.262Z,100743.94
2022-10-20T05:19:12.221Z,100738.66
2022-10-20T05:21:51.619Z,100730.00
2022-10-20T05:24:30.171Z,100743.66
2022-10-20T05:27:06.489Z,100743.66
2022-10-20T05:29:50.924Z,100740.34
2022-10-20T05:32:27.952Z,100722.22
2022-10-20T05:35:00.734Z,100736.91
2022-10-20T05:37:32.573Z,100739.78
2022-10-20T05:40:03.740Z,100733.59
2022-10-20T05:42:40.588Z,100739.78
2022-10-20T05:45:25.355Z,100729.44
2022-10-20T05:47:55.801Z,100727.78
2022-10-20T05:50:36.977Z,100716.53
2022-10-20T05:53:08.186Z,100728.16
2022-10-20T05:55:38.474Z,100741.75
2022-10-20T05:58:07.930Z,100741.91
2022-10-20T06:00:55.698Z,100707.69
2022-10-20T06:03:27.507Z,100719.31
2022-10-20T06:05:59.384Z,100727.16
2022-10-20T06:08:39.065Z,100731.03
2022-10-20T06:11:09.311Z,100736.94
2022-10-20T06:13:55.339Z,100732.81
2022-10-20T06:16:57.016Z,100723.47
2022-10-20T06:19:26.567Z,100706.22
2022-10-20T06:21:55.202Z,100717.31
2022-10-20T06:24:48.248Z,100707.78
2022-10-20T06:27:16.353Z,100700.19
2022-10-20T06:29:47.353Z,100699.38
2022-10-20T06:35:07.803Z,100709.28
2022-10-20T06:37:44.745Z,100715.81
2022-10-20T06:40:30.286Z,100719.06
2022-10-20T06:42:58.304Z,100690.56
2022-10-20T06:45:26.407Z,100696.50
2022-10-20T06:48:08.958Z,100666.56
2022-10-20T06:50:41.020Z,100689.50
2022-10-20T06:53:09.922Z,100678.22
2022-10-20T06:55:41.346Z,100699.19
2022-10-20T06:58:11.132Z,100682.72
2022-10-20T07:03:21.168Z,100690.56
2022-10-20T07:05:49.527Z,100702.06
2022-10-20T07:08:17.967Z,100715.22
2022-10-20T07:10:47.456Z,100709.88
2022-10-20T07:13:17.310Z,100713.56
2022-10-20T07:15:56.501Z,100711.56
2022-10-20T07:21:54.455Z,100715.81
2022-10-20T07:24:22.590Z,100702.50
2022-10-20T07:26:52.235Z,100723.47
2022-10-20T07:29:29.605Z,100713.22
2022-10-20T07:32:03.953Z,100701.88
2022-10-20T07:37:58.556Z,100725.59
2022-10-20T07:40:36.923Z,100729.03
2022-10-20T07:43:10.736Z,100728.47
2022-10-20T07:45:54.156Z,100734.56
2022-10-20T07:48:22.233Z,100725.28
2022-10-20T07:51:26.739Z,100730.75
2022-10-20T07:57:30.272Z,100742.56
2022-10-20T08:00:11.265Z,100736.75
2022-10-20T08:05:24.023Z,100751.34
2022-10-20T08:07:53.463Z,100753.19
2022-10-20T08:10:21.586Z,100746.78
2022-10-20T08:12:49.685Z,100748.94
2022-10-20T08:15:25.423Z,100751.06
2022-10-20T08:18:06.199Z,100753.91
2022-10-20T08:20:41.602Z,100750.78
2022-10-20T08:23:22.296Z,100751.53
2022-10-20T08:26:25.903Z,100746.34
2022-10-20T08:29:10.138Z,100745.25
2022-10-20T08:32:13.473Z,100744.97
2022-10-20T08:34:41.588Z,100753.66
2022-10-20T08:37:10.937Z,100740.72
2022-10-20T08:39:44.808Z,100709.50
2022-10-20T08:42:13.314Z,100730.00
2022-10-20T08:45:17.295Z,100719.44
2022-10-20T08:47:47.121Z,100727.56
2022-10-20T08:50:19.044Z,100725.38
2022-10-20T08:52:50.169Z,100704.59
2022-10-20T08:55:42.985Z,100695.97
2022-10-20T08:58:15.686Z,100710.78
2022-10-20T09:00:46.203Z,100722.41
2022-10-20T09:03:24.206Z,100710.88
2022-10-20T09:05:54.971Z,100718.81
2022-10-20T09:08:37.612Z,100694.22
2022-10-20T09:11:07.374Z,100723.44
2022-10-20T09:14:23.627Z,100713.00
2022-10-20T09:17:06.926Z,100713.84
2022-10-20T09:19:37.672Z,100710.13
2022-10-20T09:22:10.487Z,100702.09
2022-10-20T09:24:46.886Z,100708.06
2022-10-20T09:27:25.169Z,100699.41
2022-10-20T09:29:54.064Z,100712.03
2022-10-20T09:32:51.206Z,100712.28
2022-10-20T09:38:43.161Z,100705.47
2022-10-20T09:41:17.572Z,100701.16
2022-10-20T09:43:58.031Z,100691.03
2022-10-20T09:46:27.674Z,100692.31
2022-10-20T09:49:05.238Z,100683.47
2022-10-20T09:51:39.090Z,100668.16
2022-10-20T09:54:23.681Z,100680.84
2022-10-20T09:57:06.918Z,100681.72
2022-10-20T09:59:45.181Z,100657.75
2022-10-20T10:02:29.450Z,100669.00
2022-10-20T10:05:22.609Z,100668.81
2022-10-20T10:08:42.032Z,100636.72
2022-10-20T10:11:51.018Z,100665.56
2022-10-20T10:14:52.351Z,100656.09
2022-10-20T10:18:13.328Z,100648.88
2022-10-20T10:20:57.634Z,100650.53
2022-10-20T10:23:36.865Z,100655.09
2022-10-20T10:26:06.113Z,100647.88
2022-10-20T10:29:02.766Z,100661.72
2022-10-20T10:31:31.669Z,100653.47
2022-10-20T10:34:32.057Z,100639.63
2022-10-20T10:37:00.572Z,100648.53
2022-10-20T10:40:01.790Z,100648.75
2022-10-20T10:43:24.982Z,100646.88
2022-10-20T10:50:04.799Z,100623.72
2022-10-20T10:53:10.024Z,100632.81
2022-10-20T10:56:38.893Z,100625.81
2022-10-20T10:59:47.048Z,100617.94
2022-10-20T11:02:49.033Z,100613.38
2022-10-20T11:06:11.595Z,100620.00
2022-10-20T11:09:04.850Z,100611.97
2022-10-20T11:11:45.414Z,100614.22
2022-10-20T11:14:51.086Z,100614.19
2022-10-20T11:18:20.751Z,100607.97
2022-10-20T11:20:59.609Z,100597.66
2022-10-20T11:24:54.705Z,100607.53
2022-10-20T11:27:28.562Z,100600.25
2022-10-20T11:30:04.806Z,100583.66
2022-10-20T11:32:58.325Z,100577.59
2022-10-20T11:38:53.201Z,100586.09
2022-10-20T11:41:23.872Z,100581.03
2022-10-20T11:44:06.835Z,100579.13
2022-10-20T11:46:37.770Z,100566.88
2022-10-20T11:49:08.736Z,100573.84
2022-10-20T11:52:16.415Z,100573.28
2022-10-20T11:55:33.096Z,100565.66
2022-10-20T11:58:14.236Z,100547.31
2022-10-20T12:00:59.557Z,100558.88
2022-10-20T12:04:09.665Z,100551.28
2022-10-20T12:07:10.024Z,100536.34
2022-10-20T12:10:43.360Z,100542.88
2022-10-20T12:13:44.369Z,100538.66
2022-10-20T12:16:22.570Z,100527.88
2022-10-20T12:19:17.503Z,100530.63
2022-10-20T12:22:15.326Z,100532.22
2022-10-20T12:24:44.098Z,100514.53
2022-10-20T12:27:21.661Z,100509.94
2022-10-20T12:30:14.502Z,100515.78
2022-10-20T12:33:18.031Z,100514.91
2022-10-20T12:36:15.082Z,100513.19
2022-10-20T12:38:52.901Z,100499.25
2022-10-20T12:41:29.400Z,100495.50
2022-10-20T12:44:16.301Z,100473.00
2022-10-20T12:46:46.327Z,100485.13
2022-10-20T12:49:26.057Z,100477.31
2022-10-20T12:51:54.708Z,100468.31
2022-10-20T12:57:31.893Z,100482.44
2022-10-20T13:00:08.690Z,100478.41
2022-10-20T13:02:56.376Z,100484.19
2022-10-20T13:05:48.584Z,100479.97
2022-10-20T13:08:42.272Z,100481.81
2022-10-20T13:12:01.030Z,100464.47
2022-10-20T13:14:55.472Z,100472.13
2022-10-20T13:17:36.996Z,100438.25
2022-10-20T13:20:24.438Z,100458.63
2022-10-20T13:25:38.558Z,100463.44
2022-10-20T13:28:19.950Z,100467.38
2022-10-20T13:31:24.165Z,100455.28
2022-10-20T13:41:52.336Z,100455.03
2022-10-20T13:49:51.885Z,100463.22
2022-10-20T13:53:35.469Z,100451.22
2022-10-20T13:56:43.634Z,100456.69
2022-10-20T14:03:45.485Z,100460.72
2022-10-20T14:11:03.551Z,100451.97
2022-10-20T14:13:43.010Z,100435.91
2022-10-20T14:31:23.573Z,100444.09
2022-10-20T14:37:35.888Z,100435.09
2022-10-20T14:59:43.481Z,100413.59
2022-10-20T15:08:43.538Z,100418.59
2022-10-20T15:14:32.705Z,100402.97
2022-10-20T15:26:53.570Z,100389.06
2022-10-20T15:29:33.875Z,100407.50
2022-10-20T15:32:02.741Z,100409.00
2022-10-20T15:34:41.035Z,100412.44
2022-10-20T15:37:27.818Z,100398.50
2022-10-20T15:40:02.607Z,100394.47
2022-10-20T15:42:40.375Z,100393.66
2022-10-20T15:45:33.878Z,100385.75
2022-10-20T15:48:24.931Z,100397.22
2022-10-20T15:51:31.512Z,100408.25
2022-10-20T15:54:08.397Z,100387.41
2022-10-20T15:56:39.728Z,100413.25
2022-10-20T16:00:01.748Z,100411.31
2022-10-20T16:03:06.132Z,100409.63
2022-10-20T16:05:35.197Z,100401.78
2022-10-20T16:08:04.903Z,100404.63
2022-10-20T16:11:02.818Z,100396.38
2022-10-20T16:13:39.948Z,100374.59
2022-10-20T16:16:47.775Z,100397.38
2022-10-20T16:19:59.189Z,100396.78
2022-10-20T16:22:58.602Z,100382.91
2022-10-20T16:25:31.317Z,100377.56
2022-10-20T16:28:01.822Z,100379.44
2022-10-20T16:30:36.968Z,100373.91
2022-10-20T16:36:05.535Z,100363.72
2022-10-20T16:41:43.383Z,100365.97
2022-10-20T16:44:24.886Z,100373.94
2022-10-20T16:46:56.145Z,100366.16
2022-10-20T16:49:25.402Z,100348.69
2022-10-20T16:52:39.439Z,100374.09
2022-10-20T16:59:21.878Z,100356.41
2022-10-20T17:05:26.511Z,100363.53
2022-10-20T17:07:56.447Z,100351.75
2022-10-20T17:11:22.305Z,100368.09
2022-10-20T17:19:13.046Z,100362.75
2022-10-20T17:21:56.354Z,100363.59
2022-10-20T17:28:07.239Z,100349.75
2022-10-20T17:31:19.864Z,100339.41
2022-10-20T17:34:44.709Z,100332.41
2022-10-20T17:37:19.077Z,100329.09
2022-10-20T17:40:34.282Z,100333.88
2022-10-20T17:43:37.992Z,100321.47
2022-10-20T17:46:14.795Z,100309.06
2022-10-20T17:56:43.484Z,100314.41
2022-10-20T18:00:51.083Z,100310.72
2022-10-20T18:05:06.795Z,100304.09
2022-10-20T18:12:27.074Z,100311.06
2022-10-20T18:15:01.033Z,100317.22
2022-10-20T18:17:47.335Z,100311.84
2022-10-20T18:20:46.185Z,100321.56
2022-10-20T18:23:15.603Z,100309.78
2022-10-20T18:25:53.303Z,100323.19
2022-10-20T18:28:34.311Z,100322.13
2022-10-20T18:31:56.186Z,100317.81
2022-10-20T18:40:11.503Z,100307.25
2022-10-20T18:46:36.615Z,100327.41
2022-10-20T18:49:36.473Z,100334.44
2022-10-20T18:53:03.496Z,100332.13
2022-10-20T19:01:01.517Z,100307.56
2022-10-20T19:04:02.462Z,100297.44
2022-10-20T19:07:29.664Z,100289.84
2022-10-20T19:25:00.506Z,100283.09
2022-10-20T19:27:32.588Z,100275.66
2022-10-20T19:30:37.936Z,100280.22
2022-10-20T19:36:49.677Z,100264.75
2022-10-20T19:39:25.567Z,100253.81
2022-10-20T19:46:03.133Z,100235.69
2022-10-20T19:54:03.616Z,100233.31
2022-10-20T19:56:39.797Z,100228.28
2022-10-20T20:03:11.130Z,100200.22
2022-10-20T20:05:40.042Z,100204.56
2022-10-20T20:11:49.814Z,100223.81
2022-10-20T20:21:37.100Z,100214.75
2022-10-20T20:31:55.615Z,100184.59
2022-10-20T20:41:43.420Z,100190.41
2022-10-20T20:48:15.340Z,100185.69
2022-10-20T20:51:10.232Z,100190.22
2022-10-20T20:58:30.942Z,100167.66
2022-10-20T21:01:45.153Z,100189.63
2022-10-20T21:04:15.986Z,100173.88
2022-10-20T21:11:16.656Z,100168.13
2022-10-20T21:19:25.135Z,100151.44
2022-10-20T21:22:52.883Z,100147.34
2022-10-20T21:25:28.871Z,100142.97
2022-10-20T21:27:57.292Z,100146.25
2022-10-20T21:30:45.466Z,100143.97
2022-10-20T21:51:46.468Z,100111.78
2022-10-20T21:54:24.349Z,100125.63
2022-10-20T22:04:44.527Z,100083.16
2022-10-20T22:07:55.963Z,100064.66
2022-10-20T22:10:57.469Z,100063.41
2022-10-20T22:13:57.312Z,100059.31
2022-10-20T22:20:18.712Z,100053.94
2022-10-20T22:22:49.335Z,100042.59
2022-10-20T22:25:20.243Z,100033.75
2022-10-20T22:28:36.884Z,100039.94
2022-10-20T22:31:34.917Z,100000.97
2022-10-20T22:41:08.685Z,100001.41
2022-10-20T22:44:36.483Z,100027.59
2022-10-20T22:47:45.088Z,100001.19
2022-10-20T22:50:35.110Z,100007.19
2022-10-20T22:54:10.715Z,100012.34
2022-10-20T23:05:33.973Z,100023.88
2022-10-20T23:08:57.312Z,100032.56
2022-10-20T23:11:25.438Z,100025.13
2022-10-20T23:14:57.528Z,100004.53
2022-10-20T23:17:36.706Z,99992.97
2022-10-20T23:21:03.134Z,100026.78
2022-10-20T23:23:54.207Z,100010.47
2022-10-20T23:27:13.053Z,100002.03
2022-10-20T23:31:14.109Z,99979.34
2022-10-20T23:37:57.117Z,99969.47
2022-10-20T23:41:21.740Z,99949.69
2022-10-20T23:44:25.102Z,99962.06
2022-10-20T23:51:00.606Z,99941.44
2022-10-20T23:54:12.238Z,99950.13
2022-10-20T23:56:53.998Z,99936.09
